x

East Scotia Slope (44137) Wave Buoy

12:00pm - Tue 2nd Sep 2014 All times are EDT. -4 hours from GMT.

  • Sig Wave height 4.3ft
  • Peak Period 6s
  • Wind
    18mph, 22mph gusts
  • Sea Temp 74°f
  • Air Temp 74°f
  • Sea Pressure 1013.8mb
  • East Scotia Slope
  • East Scotia Slope

More Historic Weather Station data

Upgrade to MSW Pro to gain access to the past 30 days of data for over 8000 Wavebouys and Weather Stations around the globe.

Join Pro

Comparision Forecast

View Surf forecast
   
Tue 09/02 12:00pm 4.5ft 6s 18 22 mph 1013.8mb 74f 74f
11:00am 4ft 7s 16 20 mph 1014.4mb 74f 74f
10:00am 3.5ft 7s 18 22 mph 1015.1mb 74f 74f
9:00am 3.5ft 6s 13 18 mph 1015.7mb 74f 74f
8:00am 4ft 7s 13 16 mph 1015.9mb 73f 74f
7:00am 4ft 7s 9
mph
1016.2mb 73f 74f
6:00am 4.5ft 7s 9
mph
1015.8mb 73f 74f
5:00am 4.5ft 6s 9 11 mph 1016mb 74f 74f
4:00am 4.5ft 7s 11 16 mph 1016mb 74f 74f
3:00am 4.5ft 7s 13 16 mph 1016.3mb 74f 74f
2:00am 4.5ft 7s 13 16 mph 1016.4mb 74f 73f
1:00am 4.5ft 6s 11 13 mph 1016.5mb 74f 73f
12:00am 5ft 6s 11 13 mph 1016.7mb 74f 73f
Mon 09/01 11:00pm 5ft 7s 11 16 mph 1016.9mb 74f 73f
10:00pm 5.5ft 6s 11 13 mph 1017mb 74f 73f
9:00pm 5.5ft 6s 11 13 mph 1017.1mb 74f 72f
8:00pm 5.5ft 7s 13 18 mph 1017mb 74f 72f
7:00pm 5.5ft 7s 16 18 mph 1016.5mb 74f 72f
6:00pm 6ft 6s 18 22 mph 1016.4mb 74f 72f
5:00pm 6.5ft 6s 20 25 mph 1015.9mb 74f 72f
4:00pm 6ft 6s 22 27 mph 1015.8mb 74f 72f
3:00pm 6ft 6s 22 27 mph 1015.4mb 74f 73f
2:00pm 6ft 6s 27 34 mph 1015.3mb 74f 74f
1:00pm 5.5ft 5s 25 29 mph 1015.7mb 74f 74f
12:00pm 5.5ft 6s 22 27 mph 1015.9mb 74f 74f
11:00am 5ft 5s 22 25 mph 1016.5mb 73f 74f
10:00am 5ft 6s 22 27 mph 1017.1mb 73f 74f
9:00am 5.5ft 6s 22 25 mph 1017.5mb 73f 74f
8:00am 5.5ft 6s 22 27 mph 1017.7mb 73f 74f
7:00am 5ft 6s 22 25 mph 1018.1mb 73f 74f
6:00am 5.5ft 6s 20 22 mph 1018.2mb 73f 74f
5:00am 5ft 6s 20 25 mph 1018.3mb 73f 74f
4:00am 5ft 6s 22 27 mph 1018.3mb 73f 74f
3:00am 5ft 5s 20 25 mph 1018.5mb 73f 74f
2:00am 5ft 6s 20 25 mph 1018.8mb 73f 74f
1:00am 5ft 5s 20 25 mph 1019.1mb 73f 74f
12:00am 5ft 6s 20 25 mph 1019.6mb 73f 74f
Sun 08/31 11:00pm 5ft 6s 18 20 mph 1020.2mb 73f 74f
10:00pm 4.5ft 5s 20 25 mph 1020.3mb 73f 74f
9:00pm 4.5ft 5s 18 25 mph 1020.7mb 73f 74f
8:00pm 4.5ft 5s 20 27 mph 1020.8mb 73f 74f
6:00pm 4.5ft 5s 20 25 mph 1020.6mb 73f 74f
5:00pm 4.5ft 4s 22 25 mph 1020.8mb 73f 74f
4:00pm 5ft 5s 18 22 mph 1021mb 73f 74f
3:00pm 5ft 4s 20 25 mph 1021.3mb 73f 74f
2:00pm 5ft  -  22 29 mph 1021.5mb 74f 74f
1:00pm 4.5ft 4s 20 25 mph 1022mb 74f 73f
12:00pm 4.5ft 4s 20 25 mph 1022.6mb 74f 73f
11:00am 4.5ft 10s 20 25 mph 1023.5mb 73f 72f
10:00am 4ft 9s 20 22 mph 1023.8mb 73f 72f
9:00am 4.5ft 11s 16 20 mph 1024.3mb 73f 71f
8:00am 4ft 11s 16 20 mph 1024.5mb 73f 72f
7:00am 3.5ft 8s 13 16 mph 1024.7mb 73f 70f
6:00am 4ft 10s 13 18 mph 1024.7mb 73f 70f
5:00am 4.5ft 9s 18 22 mph 1024.9mb 73f 69f
4:00am 4.5ft 8s 16 20 mph 1025mb 73f 69f
3:00am 4.5ft 10s 18 22 mph 1025mb 73f 69f
2:00am 4.5ft 9s 18 20 mph 1025mb 73f 69f
1:00am 4.5ft 7s 18 22 mph 1025.2mb 73f 69f
12:00am 4.5ft 8s 13 20 mph 1025.7mb 73f 69f
Sat 08/30 11:00pm 4.5ft 8s 16 20 mph 1025.7mb 73f 68f
10:00pm 5ft 8s 16 22 mph 1026.1mb 73f 68f
9:00pm 5ft 9s 13 18 mph 1026.2mb 74f 67f
8:00pm 5.5ft 10s 11 16 mph 1026.4mb 74f 67f
7:00pm 5.5ft 9s 9 13 mph 1026.2mb 74f 66f
6:00pm 5.5ft 8s 7 11 mph 1026.1mb 74f 66f
5:00pm 5ft 9s 7 11 mph 1026.2mb 74f 66f
4:00pm 5.5ft 10s 4 7 mph 1026.2mb 74f 66f
3:00pm 6ft 8s 4 9 mph 1026.6mb 74f 66f
2:00pm 5.5ft 9s 4 7 mph 1027mb 74f 65f
1:00pm 6ft 10s 4 7 mph 1027.2mb 74f 65f
12:00pm 6ft 9s 4 7 mph 1027.4mb 74f 65f
11:00am 6.5ft 10s 4 9 mph 1027.6mb 74f 65f
10:00am 6.5ft 10s 4 7 mph 1027.5mb 74f 65f
9:00am 7ft 9s 2 7 mph 1027.2mb 74f 65f
8:00am 7ft 9s 4 9 mph 1026.8mb 74f 64f
7:00am 7ft 8s 4 11 mph 1026.6mb 73f 64f
6:00am 7.5ft 8s 9 13 mph 1025.7mb 73f 64f
5:00am 7ft 8s 11 13 mph 1025mb 73f 64f
4:00am 7ft 8s 9 13 mph 1024.4mb 73f 64f
3:00am 7.5ft 9s 11 18 mph 1024mb 74f 64f
2:00am 8ft 8s 18 20 mph 1023.2mb 74f 65f
1:00am 8ft 8s 18 25 mph 1022.6mb 74f 65f
12:00am 9ft 8s 18 22 mph 1022mb 74f 65f
Fri 08/29 11:00pm  -   -  20
mph
1021.2mb 74f 65f
10:00pm 9.5ft 8s 22 27 mph 1020.7mb 74f 65f
9:00pm 10ft 8s 22 27 mph 1020.1mb 74f 65f
8:00pm 10ft 8s 25 29 mph 1019.4mb 74f 65f
7:00pm 10ft 8s 22 31 mph 1018.3mb 74f 65f
6:00pm 10.5ft 8s 29 36 mph 1017.3mb 74f 65f